Time;durP1;ratioP1;P1;durP2;ratioP2;P2;SDS_P1;SDS_P2;PMS_P1;PMS_P2;Temp;Humidity;BMP_temperature;BMP_pressure;BME280_temperature;BME280_humidity;BME280_pressure;Samples;Min_cycle;Max_cycle;Signal;HPM_P1;HPM_P2
2023/07/04 00:01:16;;;;;;;2.27;1.80;;;24.20;72.10;;;;;;4976226;28;20822;-88
2023/07/04 00:03:45;;;;;;;2.23;1.97;;;24.20;72.20;;;;;;4976162;28;20439;-88
2023/07/04 00:06:14;;;;;;;3.37;2.20;;;24.40;72.40;;;;;;4976059;28;20463;-88
2023/07/04 00:08:41;;;;;;;1.93;1.73;;;24.20;72.20;;;;;;4975984;28;20448;-89
2023/07/04 00:11:09;;;;;;;2.20;1.80;;;24.20;72.20;;;;;;4975997;28;20445;-87
2023/07/04 00:13:37;;;;;;;2.30;2.03;;;24.20;72.20;;;;;;4975749;28;20943;-88
2023/07/04 00:16:07;;;;;;;2.30;2.10;;;24.20;72.20;;;;;;4976600;28;20448;-88
2023/07/04 00:18:36;;;;;;;3.10;2.10;;;24.20;72.30;;;;;;4976265;28;20455;-87
2023/07/04 00:21:04;;;;;;;3.63;2.30;;;24.20;72.30;;;;;;4976719;28;20454;-85
2023/07/04 00:23:34;;;;;;;3.40;2.43;;;24.20;72.30;;;;;;4975811;28;20451;-87
2023/07/04 00:26:02;;;;;;;2.17;1.97;;;24.20;72.30;;;;;;4975514;28;20500;-88
2023/07/04 00:28:29;;;;;;;2.20;1.73;;;24.30;72.70;;;;;;4975622;28;20812;-88
2023/07/04 00:30:56;;;;;;;2.80;2.47;;;24.20;72.40;;;;;;4975682;28;20489;-87
2023/07/04 00:33:25;;;;;;;2.23;2.03;;;24.20;72.40;;;;;;4975473;28;20456;-89
2023/07/04 00:36:00;;;;;;;3.53;2.20;;;24.20;72.50;;;;;;4975404;28;20465;-88
2023/07/04 00:38:27;;;;;;;3.37;2.10;;;24.20;72.50;;;;;;4975595;28;20943;-87
2023/07/04 00:40:54;;;;;;;3.93;2.30;;;24.20;72.50;;;;;;4993524;28;20458;-87
2023/07/04 00:43:22;;;;;;;2.30;2.10;;;24.20;72.50;;;;;;4994274;28;20573;-87
2023/07/04 00:45:56;;;;;;;2.17;1.97;;;24.20;73.40;;;;;;4994662;28;20439;-87
2023/07/04 00:48:24;;;;;;;2.13;1.90;;;24.20;72.50;;;;;;4995021;28;20799;-89
2023/07/04 00:51:02;;;;;;;3.63;1.87;;;24.20;72.50;;;;;;4994354;28;20489;-88
2023/07/04 00:53:30;;;;;;;1.83;1.57;;;24.20;72.60;;;;;;4993781;28;20445;-88
2023/07/04 00:55:58;;;;;;;2.53;2.33;;;24.30;72.70;;;;;;4986487;28;20473;-88
2023/07/04 00:58:25;;;;;;;2.00;1.77;;;24.20;72.50;;;;;;4980019;28;20474;-88
2023/07/04 01:00:52;;;;;;;1.60;1.50;;;24.20;72.50;;;;;;4989570;28;20890;-88
2023/07/04 01:03:20;;;;;;;1.57;1.40;;;24.20;72.50;;;;;;4974787;28;20491;-89
2023/07/04 01:05:56;;;;;;;2.33;1.80;;;24.20;72.50;;;;;;4974475;28;20464;-88
2023/07/04 01:08:28;;;;;;;2.33;1.83;;;24.20;72.60;;;;;;4974877;28;20926;-88
2023/07/04 01:10:59;;;;;;;2.00;1.73;;;24.20;72.50;;;;;;4974738;28;20499;-89
2023/07/04 01:13:34;;;;;;;4.47;2.10;;;24.20;72.60;;;;;;4974844;28;20502;-89
2023/07/04 01:16:01;;;;;;;1.97;1.73;;;24.20;72.60;;;;;;4974620;28;21002;-88
2023/07/04 01:18:28;;;;;;;2.30;1.90;;;24.20;72.50;;;;;;4977344;28;20997;-89
2023/07/04 01:20:56;;;;;;;3.40;2.07;;;24.30;72.60;;;;;;4994013;28;20452;-88
2023/07/04 01:23:32;;;;;;;2.00;1.80;;;24.20;72.40;;;;;;4994169;28;20527;-88
2023/07/04 01:26:22;;;;;;;2.23;1.67;;;24.20;72.40;;;;;;4994225;28;20434;-88
2023/07/04 01:28:53;;;;;;;2.20;2.00;;;24.20;72.30;;;;;;4994087;28;20934;-88
2023/07/04 01:31:20;;;;;;;1.80;1.70;;;24.20;72.40;;;;;;4994262;28;20503;-89
2023/07/04 01:33:48;;;;;;;2.00;1.80;;;24.20;72.30;;;;;;4993927;28;20443;-88
2023/07/04 01:36:16;;;;;;;2.53;1.87;;;24.10;72.30;;;;;;4993980;28;20464;-89
2023/07/04 01:38:43;;;;;;;2.67;1.97;;;24.10;72.20;;;;;;4993965;28;20458;-88
2023/07/04 01:41:10;;;;;;;2.47;2.00;;;24.10;72.30;;;;;;4993857;28;20768;-88
2023/07/04 01:43:37;;;;;;;1.50;1.30;;;24.20;72.30;;;;;;4993504;28;20536;-88
2023/07/04 01:46:06;;;;;;;1.40;1.30;;;24.40;72.70;;;;;;4993988;28;20451;-88
2023/07/04 01:48:32;;;;;;;2.17;1.50;;;24.20;72.40;;;;;;4994027;28;20542;-88
2023/07/04 01:50:59;;;;;;;2.40;2.00;;;24.10;72.20;;;;;;4993864;28;20502;-88
2023/07/04 01:53:26;;;;;;;1.97;1.83;;;24.10;72.30;;;;;;4993687;28;20453;-89
2023/07/04 01:55:53;;;;;;;2.20;2.00;;;24.20;72.40;;;;;;4993686;28;20543;-89
2023/07/04 01:58:20;;;;;;;3.40;1.80;;;24.10;72.30;;;;;;4993853;28;20552;-89
2023/07/04 02:00:46;;;;;;;2.30;1.60;;;24.10;73.20;;;;;;4993803;28;20457;-88
2023/07/04 02:03:15;;;;;;;2.13;1.73;;;24.10;72.30;;;;;;4993621;28;20890;-89
2023/07/04 02:05:41;;;;;;;2.00;1.80;;;24.20;72.50;;;;;;4989457;28;20465;-89
2023/07/04 02:08:11;;;;;;;1.70;1.60;;;24.10;72.30;;;;;;4997486;28;20539;-88
2023/07/04 02:10:37;;;;;;;2.30;1.77;;;24.20;72.40;;;;;;4997228;28;20471;-89
2023/07/04 02:13:04;;;;;;;2.10;1.63;;;24.10;72.40;;;;;;4997870;28;20455;-89
2023/07/04 02:15:32;;;;;;;1.87;1.47;;;24.10;72.40;;;;;;4986358;28;20451;-89
2023/07/04 02:17:59;;;;;;;2.40;1.80;;;24.20;72.50;;;;;;4991924;28;20546;-89
2023/07/04 02:20:27;;;;;;;2.40;1.80;;;24.10;72.50;;;;;;4997079;28;20968;-88
2023/07/04 02:22:54;;;;;;;2.00;1.80;;;24.10;72.50;;;;;;4988621;28;20456;-88
2023/07/04 02:25:21;;;;;;;1.90;1.50;;;24.10;72.50;;;;;;4977710;28;20448;-89
2023/07/04 02:27:47;;;;;;;1.37;1.27;;;24.10;72.40;;;;;;4977897;28;20448;-88
2023/07/04 02:30:14;;;;;;;2.53;1.83;;;24.10;72.40;;;;;;4977382;28;20495;-89
2023/07/04 02:32:41;;;;;;;1.87;1.67;;;24.10;72.40;;;;;;4977978;28;20451;-87
2023/07/04 02:35:08;;;;;;;1.90;1.70;;;24.10;72.40;;;;;;4978429;28;20465;-89
2023/07/04 02:37:37;;;;;;;2.20;1.70;;;24.10;72.40;;;;;;4978057;28;20452;-89
2023/07/04 02:40:04;;;;;;;2.00;1.80;;;24.10;72.50;;;;;;4977573;28;20452;-89
2023/07/04 02:42:31;;;;;;;2.20;2.00;;;24.10;72.40;;;;;;4977154;28;20486;-89
2023/07/04 02:44:57;;;;;;;1.90;1.53;;;24.10;72.40;;;;;;4977442;28;20452;-88
2023/07/04 02:47:26;;;;;;;1.90;1.70;;;24.10;72.40;;;;;;4977574;28;20448;-89
2023/07/04 02:49:53;;;;;;;2.13;1.40;;;24.10;72.40;;;;;;4976987;28;20496;-89
2023/07/04 02:52:21;;;;;;;5.10;1.90;;;24.10;72.40;;;;;;4977411;28;20455;-88
2023/07/04 02:54:49;;;;;;;1.60;1.50;;;24.10;72.40;;;;;;4977230;28;20466;-89
2023/07/04 02:57:17;;;;;;;2.80;2.03;;;24.10;72.30;;;;;;4977429;28;20444;-89
2023/07/04 02:59:44;;;;;;;3.13;1.70;;;24.10;72.40;;;;;;4977248;28;20462;-89
2023/07/04 03:02:11;;;;;;;1.40;1.20;;;24.10;72.40;;;;;;4977266;28;20448;-89
2023/07/04 03:04:38;;;;;;;1.50;1.40;;;24.10;72.50;;;;;;4977202;28;20450;-89
2023/07/04 03:07:06;;;;;;;1.90;1.57;;;24.10;72.50;;;;;;4976752;28;20455;-89
2023/07/04 03:09:33;;;;;;;2.60;1.80;;;24.10;72.50;;;;;;4976980;28;20455;-89
2023/07/04 03:12:01;;;;;;;2.33;2.13;;;24.10;72.50;;;;;;4988679;28;20442;-89
2023/07/04 03:14:28;;;;;;;1.60;1.50;;;24.10;72.50;;;;;;4996439;28;20450;-89
2023/07/04 03:16:55;;;;;;;2.13;1.50;;;24.10;72.60;;;;;;4995474;28;20469;-89
2023/07/04 03:19:22;;;;;;;2.10;1.90;;;24.20;72.60;;;;;;4996484;28;20462;-89
2023/07/04 03:21:49;;;;;;;1.90;1.40;;;24.10;72.60;;;;;;4996085;28;20440;-88
2023/07/04 03:24:16;;;;;;;2.00;1.80;;;24.20;72.60;;;;;;4996237;28;20522;-88
2023/07/04 03:26:44;;;;;;;2.37;1.70;;;24.10;72.60;;;;;;4996146;28;20457;-88
2023/07/04 03:29:13;;;;;;;3.67;1.40;;;24.10;72.60;;;;;;4996143;28;20472;-89
2023/07/04 03:31:39;;;;;;;2.23;1.70;;;24.10;72.60;;;;;;4995852;28;20490;-89
2023/07/04 03:34:06;;;;;;;2.27;1.63;;;24.10;72.60;;;;;;4996094;28;20451;-89
2023/07/04 03:36:33;;;;;;;1.90;1.80;;;24.10;72.60;;;;;;4996067;28;20468;-89
2023/07/04 03:39:00;;;;;;;2.47;1.40;;;24.10;72.60;;;;;;4995951;28;20453;-88
2023/07/04 03:41:27;;;;;;;2.73;1.67;;;24.10;72.60;;;;;;4995750;28;20973;-89
2023/07/04 03:43:53;;;;;;;4.10;1.80;;;24.10;72.70;;;;;;4995462;28;20797;-89
2023/07/04 03:46:22;;;;;;;1.83;1.60;;;24.20;72.70;;;;;;4995651;28;20882;-88
2023/07/04 03:48:49;;;;;;;1.90;1.80;;;24.10;72.70;;;;;;4995773;28;20446;-88
2023/07/04 03:51:16;;;;;;;3.23;1.90;;;24.10;72.60;;;;;;4995921;28;20516;-89
2023/07/04 03:53:43;;;;;;;1.60;1.50;;;24.10;72.60;;;;;;4995527;28;20811;-88
2023/07/04 03:56:10;;;;;;;2.80;1.53;;;24.10;72.60;;;;;;4995696;28;20443;-89
2023/07/04 03:58:36;;;;;;;1.90;1.50;;;24.10;72.60;;;;;;4995400;28;20465;-89
2023/07/04 04:04:28;;;;;;;2.20;1.57;;;24.10;72.70;;;;;;4993036;28;20887;-89
2023/07/04 04:06:58;;;;;;;2.37;1.27;;;24.10;72.80;;;;;;4995685;28;20526;-88
2023/07/04 04:09:25;;;;;;;1.43;1.30;;;24.10;72.80;;;;;;4995686;28;20467;-87
2023/07/04 04:11:52;;;;;;;1.47;1.33;;;24.10;72.80;;;;;;4984563;28;20479;-87
2023/07/04 04:14:19;;;;;;;2.40;1.73;;;24.10;72.70;;;;;;4975893;28;20567;-87
2023/07/04 04:16:49;;;;;;;1.90;1.70;;;24.10;72.80;;;;;;4976160;28;20454;-87
2023/07/04 04:19:16;;;;;;;1.77;1.60;;;;;;;;;;4981295;28;20837;-88
2023/07/04 04:21:44;;;;;;;1.73;1.60;;;23.70;96.20;;;;;;4984282;28;20459;-87
2023/07/04 04:24:11;;;;;;;2.23;2.03;;;24.30;90.50;;;;;;4995344;28;20459;-83
2023/07/04 04:26:40;;;;;;;4.50;2.37;;;24.10;89.50;;;;;;4994909;28;20938;-83
2023/07/04 04:29:07;;;;;;;4.17;2.50;;;24.00;87.50;;;;;;4994850;28;20450;-83
2023/07/04 04:31:37;;;;;;;5.10;2.50;;;24.00;86.40;;;;;;4994975;28;20997;-84
2023/07/04 04:34:04;;;;;;;10.23;2.70;;;23.90;86.10;;;;;;4992753;28;20453;-83
2023/07/04 04:36:32;;;;;;;9.70;3.27;;;23.80;85.90;;;;;;4975392;28;20471;-82
2023/07/04 04:39:02;;;;;;;12.63;4.33;;;24.00;86.00;;;;;;4975445;28;21130;-83
2023/07/04 04:41:29;;;;;;;4.30;2.20;;;23.80;85.90;;;;;;4990529;28;21197;-83
2023/07/04 04:43:57;;;;;;;4.60;2.33;;;23.80;85.60;;;;;;4975209;28;20474;-82
2023/07/04 04:46:24;;;;;;;10.03;2.67;;;23.80;85.60;;;;;;4986985;28;20798;-84
2023/07/04 04:48:52;;;;;;;4.27;2.27;;;23.80;85.30;;;;;;4995100;28;20941;-82
2023/07/04 04:51:22;;;;;;;7.57;2.30;;;23.90;85.10;;;;;;4977641;28;20496;-83
2023/07/04 04:53:49;;;;;;;9.20;3.80;;;23.90;84.90;;;;;;4989851;28;20847;-82
2023/07/04 04:56:17;;;;;;;3.37;2.40;;;23.90;84.50;;;;;;4983597;28;20442;-82
2023/07/04 04:58:44;;;;;;;12.63;3.20;;;23.90;84.50;;;;;;4980136;28;20450;-81
2023/07/04 05:01:14;;;;;;;5.87;2.60;;;24.00;84.70;;;;;;4991204;28;20494;-82
2023/07/04 05:03:41;;;;;;;5.63;2.87;;;23.90;84.70;;;;;;4993954;28;20504;-82
2023/07/04 05:06:08;;;;;;;4.73;2.57;;;23.90;84.80;;;;;;4993959;28;20462;-83
2023/07/04 05:08:35;;;;;;;4.30;2.77;;;23.90;85.40;;;;;;4985604;28;20800;-82
2023/07/04 05:11:04;;;;;;;3.73;2.27;;;24.00;84.90;;;;;;4993678;28;20843;-81
2023/07/04 05:13:33;;;;;;;4.83;2.50;;;24.00;84.90;;;;;;4992805;28;20451;-82
2023/07/04 05:16:00;;;;;;;3.60;2.17;;;24.00;85.40;;;;;;4984922;28;20444;-84
2023/07/04 05:18:28;;;;;;;8.97;2.97;;;24.00;85.00;;;;;;4977373;28;20531;-83
2023/07/04 05:21:01;;;;;;;5.73;2.60;;;24.00;85.50;;;;;;4993863;28;20794;-83
2023/07/04 05:23:29;;;;;;;5.83;2.63;;;24.00;86.20;;;;;;4994161;28;20945;-83
2023/07/04 05:26:01;;;;;;;5.53;3.07;;;24.00;86.50;;;;;;4993949;28;20447;-83
2023/07/04 05:28:28;;;;;;;6.50;2.00;;;24.10;86.80;;;;;;4994185;28;20458;-93
2023/07/04 05:31:01;;;;;;;4.90;2.43;;;24.10;87.60;;;;;;4994166;28;21034;-88
2023/07/04 20:05:14;;;;;;;4.60;3.53;;;24.70;79.10;;;;;;4994827;28;20963;-82
2023/07/04 20:07:42;;;;;;;5.03;4.40;;;24.70;79.00;;;;;;4976138;28;20451;-84
2023/07/04 20:10:09;;;;;;;14.63;4.00;;;24.70;79.70;;;;;;4976998;28;20774;-81
2023/07/04 20:12:36;;;;;;;5.30;3.67;;;24.70;78.90;;;;;;4976854;28;20507;-82
2023/07/04 20:15:03;;;;;;;8.57;4.60;;;24.70;79.00;;;;;;4976229;28;20459;-83
2023/07/04 20:17:30;;;;;;;3.97;3.57;;;24.70;79.00;;;;;;4977379;28;20448;-83
2023/07/04 20:19:57;;;;;;;7.40;4.23;;;24.70;79.20;;;;;;4985340;28;20451;-82
2023/07/04 20:22:23;;;;;;;3.63;3.33;;;24.70;79.10;;;;;;4995579;28;20477;-88
2023/07/04 20:24:51;;;;;;;3.87;3.57;;;24.70;80.10;;;;;;4995773;28;20445;-82
2023/07/04 20:27:18;;;;;;;6.30;3.87;;;24.70;79.30;;;;;;4995762;28;20451;-82
2023/07/04 20:29:45;;;;;;;4.33;3.87;;;24.70;79.40;;;;;;4995428;28;20943;-83
2023/07/04 20:32:14;;;;;;;3.70;3.20;;;24.70;79.40;;;;;;4982551;28;20480;-84
2023/07/04 20:34:40;;;;;;;6.20;3.80;;;24.70;79.40;;;;;;4976384;28;20455;-82
2023/07/04 20:37:07;;;;;;;3.70;3.40;;;24.70;79.60;;;;;;4976154;28;20475;-82
2023/07/04 20:39:38;;;;;;;3.70;3.40;;;24.70;79.50;;;;;;4976449;28;20444;-82
2023/07/04 20:42:07;;;;;;;4.60;4.20;;;24.70;79.50;;;;;;4976546;28;20461;-81
2023/07/04 20:44:33;;;;;;;4.17;3.80;;;24.80;79.80;;;;;;4975949;28;20793;-82
2023/07/04 20:47:01;;;;;;;3.93;3.63;;;24.70;79.90;;;;;;4976011;28;20476;-82
2023/07/04 20:49:28;;;;;;;5.23;4.17;;;24.70;80.00;;;;;;4975707;28;20444;-83
2023/07/04 20:51:55;;;;;;;4.10;3.37;;;24.70;79.90;;;;;;4975882;28;20902;-84
2023/07/04 20:54:23;;;;;;;3.50;3.20;;;24.80;80.20;;;;;;4976641;28;20482;-87
2023/07/04 20:56:54;;;;;;;4.03;3.63;;;24.80;80.00;;;;;;4976435;28;20902;-87
